Date,TemperatureHighF,TemperatureAvgF,TemperatureLowF,DewpointHighF,DewpointAvgF,DewpointLowF,HumidityHigh,HumidityAvg,HumidityLow,PressureMaxIn,PressureMinIn,WindSpeedMaxMPH,WindSpeedAvgMPH,GustSpeedMaxMPH,PrecipitationSumIn
2013-1-1,48.3,46.0,43.9,46.5,42.3,37.8,96,87,77,29.90,29.50,31,9,31,0.57
2013-1-2,48.2,45.1,42.9,44.6,42.0,39.8,96,89,81,30.28,29.91,20,8,20,0.03
2013-1-3,51.9,50.0,45.6,50.0,48.6,44.5,100,95,92,30.57,30.25,20,8,20,0.03
2013-1-4,50.9,49.4,47.2,49.2,47.9,45.6,96,95,91,30.59,30.55,18,6,18,0.03
2013-1-5,48.5,47.4,46.4,46.2,45.5,45.0,96,93,90,30.57,30.49,12,3,12,0.00
2013-1-6,53.1,48.4,45.5,48.7,46.4,44.4,98,93,85,30.49,30.42,12,4,12,0.01
2013-1-7,47.2,45.4,42.9,45.9,44.1,41.3,97,95,90,30.43,30.29,16,7,16,0.01
2013-1-8,47.5,45.1,42.7,45.0,43.0,41.3,96,92,90,30.30,30.23,15,9,15,0.00
2013-1-9,46.7,44.1,41.9,46.2,42.6,39.7,98,95,89,30.22,30.04,17,7,17,0.15
2013-1-10,46.9,43.7,40.5,40.8,39.5,38.1,94,85,76,30.05,29.87,13,3,13,0.03
2013-1-11,40.4,34.8,30.3,38.8,30.2,28.3,95,83,68,30.10,29.91,15,2,15,0.01
2013-1-12,38.7,34.5,29.6,29.8,27.7,25.3,89,76,62,30.09,30.02,14,4,14,0.00
2013-1-13,35.6,29.6,25.6,27.3,25.5,23.1,90,85,69,30.11,30.05,15,5,15,0.01
2013-1-14,30.9,28.5,25.2,28.6,25.6,22.7,92,89,79,30.07,29.68,16,4,16,0.01
2013-1-15,30.1,28.9,27.6,28.1,26.5,22.3,94,91,79,29.83,29.62,16,7,16,0.17
2013-1-16,32.5,25.9,18.5,25.2,21.8,16.8,93,85,71,30.01,29.82,12,1,12,0.00
2013-1-17,25.4,22.6,17.6,22.9,20.5,15.9,94,91,88,30.13,30.01,6,0,6,0.00
2013-1-18,33.2,29.6,24.7,29.2,26.9,22.6,93,89,83,30.06,29.59,16,4,16,0.00
2013-1-19,29.9,26.6,23.4,26.2,22.0,18.6,87,83,75,29.59,29.49,20,10,20,0.00
2013-1-20,29.4,24.9,23.3,27.9,21.9,19.0,94,88,81,29.51,29.32,20,10,20,0.13
2013-1-21,33.2,30.4,27.5,31.6,28.7,25.1,95,93,91,29.58,29.35,12,4,12,0.09
2013-1-22,31.5,27.9,22.1,27.4,25.2,20.1,92,90,84,29.78,29.58,10,2,10,0.00
2013-1-23,29.0,24.4,19.9,26.8,21.7,17.8,92,89,85,29.88,29.77,10,3,10,0.00
2013-1-24,33.6,27.5,23.0,25.9,23.1,20.8,93,84,69,30.15,29.87,12,3,12,0.00
2013-1-25,31.2,25.9,20.6,25.6,22.1,17.9,92,85,76,30.15,29.84,21,4,21,0.00
2013-1-26,34.5,30.1,26.3,33.1,27.5,22.5,95,90,83,29.84,29.74,20,10,20,0.06
2013-1-27,44.1,38.9,34.6,41.4,36.9,33.0,98,92,89,29.79,29.43,27,12,27,0.26
2013-1-28,45.8,41.1,37.4,44.0,38.4,35.5,95,90,82,29.88,29.60,34,12,34,0.09
2013-1-29,55.2,51.0,45.7,52.7,49.3,44.1,97,94,88,29.71,29.60,34,19,34,0.33
2013-1-30,55.4,50.6,46.5,52.4,47.2,39.9,97,88,73,29.92,29.55,39,18,39,0.50
2013-1-31,50.5,46.4,43.4,45.6,41.1,39.3,93,82,72,30.00,29.74,43,18,43,0.07
2013-2-1,45.9,42.3,38.8,42.8,40.0,37.3,95,92,81,29.85,29.38,27,7,27,0.24
2013-2-2,44.0,40.6,38.1,39.9,36.2,32.6,95,85,65,30.06,29.43,33,10,33,0.07
2013-2-3,45.8,41.2,38.6,43.4,37.9,32.7,96,88,74,30.12,29.83,33,10,33,0.06
2013-2-4,50.6,47.2,44.6,46.1,41.4,36.7,95,81,60,29.83,29.74,26,14,26,0.05
2013-2-5,44.8,40.1,34.4,39.1,34.0,29.7,93,79,63,29.75,29.32,32,14,32,0.13
2013-2-6,44.7,37.4,33.4,36.7,34.2,31.7,100,88,67,29.78,29.26,21,7,21,0.28
2013-2-7,42.8,38.1,35.5,37.0,34.9,33.1,93,88,76,29.91,29.77,23,8,23,0.18
2013-2-8,41.6,36.0,33.2,34.5,31.6,27.3,95,85,59,30.09,29.88,18,4,18,0.06
2013-2-9,38.7,34.8,32.6,34.4,31.4,28.4,94,88,69,30.13,29.97,18,5,18,0.02
2013-2-10,37.8,33.2,30.7,31.4,27.8,23.6,94,81,66,29.98,29.57,20,10,20,0.02
2013-2-11,33.9,31.2,28.7,25.9,23.9,21.5,83,74,69,29.77,29.51,21,10,21,0.00
2013-2-12,33.6,30.9,26.8,27.9,24.5,23.0,87,77,67,30.14,29.78,13,5,13,0.00
2013-2-13,39.7,33.5,30.9,29.1,27.8,24.8,89,80,65,30.29,30.13,14,2,14,0.00
2013-2-14,35.3,32.1,30.1,34.5,27.5,22.3,97,83,70,30.23,29.86,23,10,23,0.07
2013-2-15,48.0,40.6,35.3,43.3,38.6,34.5,98,93,81,30.17,29.90,12,3,12,0.09
2013-2-16,47.2,42.7,38.2,42.6,40.1,36.8,100,91,81,30.26,30.17,6,1,6,0.00
2013-2-17,49.0,40.9,34.4,39.8,36.7,31.9,96,86,63,30.26,30.19,10,2,10,0.00
2013-2-18,47.7,38.2,31.5,37.7,33.5,29.7,96,84,59,30.20,30.14,6,1,6,0.00
2013-2-19,43.9,39.3,33.5,39.3,36.3,31.6,94,89,80,30.15,30.03,12,3,12,0.01
2013-2-20,41.2,33.5,29.7,33.6,27.2,23.5,92,78,60,30.32,30.15,15,7,15,0.00
2013-2-21,36.8,31.0,27.8,27.7,24.8,21.8,89,78,57,30.32,30.19,18,6,18,0.01
2013-2-22,34.1,29.9,26.1,26.1,23.5,18.2,88,77,65,30.20,30.07,18,8,18,0.00
2013-2-23,34.3,30.2,25.9,27.4,23.0,19.1,81,74,66,30.10,30.05,22,10,22,0.00
2013-2-24,34.3,33.0,31.2,33.8,30.7,27.3,100,91,81,30.15,30.06,20,11,20,0.09
2013-2-25,37.5,35.5,33.8,35.3,33.8,32.3,95,93,91,30.32,30.14,18,9,18,0.05
2013-2-26,41.9,37.9,35.9,38.2,35.8,34.5,95,92,86,30.52,30.32,14,5,14,0.00
2013-2-27,36.6,34.8,33.6,34.6,32.3,31.3,100,90,85,30.53,30.46,16,6,16,0.00
2013-2-28,41.9,36.8,34.4,35.2,32.8,31.2,91,86,75,30.46,30.34,12,4,12,0.00
2013-3-1,42.0,39.2,37.4,38.2,34.6,31.6,96,84,71,30.36,30.30,15,5,15,0.01
2013-3-2,41.4,38.5,36.7,32.7,31.9,30.9,82,77,69,30.35,30.26,12,3,12,0.00
2013-3-3,44.7,40.6,37.5,41.0,36.1,32.1,94,84,77,30.27,30.19,10,1,10,0.01
2013-3-4,55.1,41.8,31.6,38.3,33.5,28.9,91,74,49,30.19,29.86,14,4,14,0.00
2013-3-5,65.0,49.2,37.2,39.5,34.9,31.4,80,60,36,29.86,29.67,20,4,20,0.00
2013-3-6,60.5,51.0,42.2,45.1,39.6,35.7,79,66,53,29.68,29.55,7,2,7,0.00
2013-3-7,54.1,49.2,45.0,45.4,40.7,37.3,91,73,62,29.55,29.45,15,4,15,0.05
2013-3-8,59.4,50.5,46.0,51.5,46.7,43.2,94,87,74,29.49,29.45,13,5,13,0.06
2013-3-9,46.7,42.5,37.7,45.1,41.2,36.1,97,95,93,29.54,29.42,16,5,16,0.78
2013-3-10,37.7,33.9,31.2,36.4,30.7,24.5,96,88,75,29.74,29.53,20,8,20,0.10
2013-3-11,31.8,30.2,28.8,25.9,23.9,22.3,84,77,71,29.78,29.74,23,12,23,0.00
2013-3-12,35.7,30.0,26.9,23.4,20.5,16.5,82,68,47,29.76,29.71,26,11,26,0.00
2013-3-13,44.6,33.5,24.6,33.1,26.8,20.3,86,77,58,29.82,29.68,15,3,15,0.00
2013-3-14,42.3,34.6,29.3,30.6,27.1,22.6,92,75,50,29.99,29.79,18,4,18,0.02
2013-3-15,38.9,34.4,29.4,34.6,30.6,24.6,94,86,78,29.98,29.81,22,8,22,0.09
2013-3-16,45.8,41.8,38.6,36.2,31.7,24.9,83,68,48,29.80,29.53,27,12,27,0.01
2013-3-17,52.4,44.3,39.7,40.7,38.2,32.4,93,80,61,29.53,29.25,23,8,23,0.03
2013-3-18,50.7,43.1,38.5,40.6,38.4,35.8,94,84,68,29.33,29.24,21,6,21,0.09
2013-3-19,44.6,40.1,34.9,41.0,37.1,32.9,100,89,80,29.57,29.33,12,2,12,0.02
2013-3-20,39.4,36.4,34.0,35.5,31.6,27.2,90,83,75,29.97,29.55,15,7,15,0.02
2013-3-21,41.2,36.2,30.8,32.1,29.0,26.5,87,75,61,30.12,29.98,9,2,9,0.00
2013-3-22,43.3,34.8,28.7,32.0,28.6,25.8,92,79,63,30.12,29.93,29,12,29,0.00
2013-3-23,37.7,33.7,30.1,26.0,23.2,16.3,75,65,54,29.99,29.92,30,16,30,0.00
2013-3-24,37.6,31.8,27.2,16.3,11.1,5.4,57,43,29,30.01,29.94,25,16,25,0.00
2013-3-25,43.4,34.5,29.0,19.0,16.8,14.2,59,49,33,30.01,29.91,25,12,25,0.00
2013-3-26,45.4,34.9,27.3,20.2,18.3,16.3,67,52,32,29.97,29.88,22,9,22,0.00
2013-3-27,47.2,35.3,26.5,22.7,20.6,16.8,85,57,33,29.93,29.82,17,6,17,0.00
2013-3-28,42.6,33.9,28.3,27.0,23.5,19.8,82,66,51,29.86,29.80,14,6,14,0.00
2013-3-29,41.7,34.0,28.5,30.0,27.6,25.7,90,78,58,29.84,29.78,10,2,10,0.00
2013-3-30,42.7,35.1,30.2,31.8,29.1,27.0,93,80,56,29.91,29.77,14,4,14,0.00
2013-3-31,41.5,35.9,30.2,31.0,28.6,26.9,89,75,59,29.96,29.91,13,4,13,0.00
2013-4-1,49.4,38.4,29.6,28.6,26.0,22.0,87,64,36,29.94,29.83,19,6,19,0.00
2013-4-2,51.4,39.7,29.9,28.1,23.0,17.3,76,55,28,30.00,29.88,21,9,21,0.00
2013-4-3,48.2,39.1,32.3,27.1,24.7,23.3,71,57,39,30.05,29.95,20,9,20,0.00
2013-4-4,41.6,38.2,34.6,30.5,27.7,24.9,73,66,60,29.98,29.86,20,8,20,0.00
2013-4-5,47.0,40.5,36.2,32.0,29.8,27.4,78,66,49,30.01,29.84,22,10,22,0.00
2013-4-6,52.4,42.2,37.6,33.8,30.6,25.8,83,65,39,30.25,30.00,18,8,18,0.00
2013-4-7,52.2,40.5,32.7,36.0,30.5,26.2,96,70,43,30.26,29.98,12,2,12,0.00
2013-4-8,54.1,43.8,34.8,32.9,28.9,26.3,76,58,35,29.98,29.60,15,5,15,0.00
2013-4-9,51.6,45.0,37.5,44.5,39.3,27.8,91,81,51,29.61,29.47,13,3,13,0.02
2013-4-10,47.7,44.2,40.5,43.9,40.7,36.1,95,87,73,29.75,29.50,13,3,13,0.01
2013-4-11,49.4,44.8,41.1,47.8,43.0,37.5,98,93,87,29.66,29.39,28,8,28,0.20
2013-4-12,57.1,47.2,40.9,50.4,44.4,39.7,100,90,70,29.65,29.47,28,8,28,0.27
2013-4-13,61.6,49.9,42.8,49.6,44.5,40.1,95,83,47,30.05,29.65,20,8,20,0.08
2013-4-14,75.4,61.8,51.3,55.6,52.5,49.6,95,74,48,30.11,29.98,21,8,21,0.02
2013-4-15,64.1,58.2,51.5,52.3,49.8,45.6,88,74,61,30.13,29.98,20,5,20,0.02
2013-4-16,61.2,54.1,48.0,52.4,48.2,44.8,92,81,62,30.12,30.02,25,8,25,0.00
2013-4-17,70.4,60.0,49.8,55.1,50.7,47.0,95,74,45,30.15,29.83,20,7,20,0.00
2013-4-18,64.3,55.5,49.9,51.9,44.0,37.3,80,66,47,30.04,29.79,39,20,39,0.00
2013-4-19,55.4,48.6,43.2,45.6,41.9,38.3,86,78,63,30.45,30.04,20,10,20,0.02
2013-4-20,57.1,46.6,38.4,38.6,36.4,33.9,90,70,45,30.52,30.36,21,8,21,0.00
2013-4-21,59.1,47.4,38.7,39.9,36.2,34.1,86,67,44,30.36,30.04,12,3,12,0.00
2013-4-22,61.2,49.3,39.9,45.0,40.0,33.8,92,72,47,30.05,29.99,20,7,20,0.00
2013-4-23,61.2,53.0,48.3,51.4,47.3,40.9,96,82,62,30.24,29.99,21,8,21,0.06
2013-4-24,68.1,56.1,47.7,53.8,49.0,45.5,92,78,58,30.26,30.21,23,6,23,0.00
2013-4-25,74.4,60.9,50.9,56.3,51.4,47.6,90,73,50,30.26,30.00,20,4,20,0.00
2013-4-26,60.3,49.2,43.1,50.4,45.2,39.5,94,86,70,30.00,29.85,25,7,25,0.24
2013-4-27,53.6,46.1,40.7,39.8,38.0,34.0,92,75,51,30.02,29.84,20,6,20,0.00
2013-4-28,58.9,47.6,40.0,39.2,36.5,33.9,87,67,41,30.07,29.94,15,3,15,0.00
2013-4-29,57.4,49.1,43.7,44.6,37.9,33.7,89,67,45,30.14,29.89,21,9,21,0.11
2013-4-30,60.4,51.1,45.5,44.6,41.1,37.8,87,70,48,30.28,30.13,16,5,16,0.00
2013-5-1,66.6,52.3,40.1,44.1,39.8,35.2,85,65,42,30.29,30.12,20,6,20,0.00
2013-5-2,65.4,53.8,47.2,48.4,41.8,34.8,73,64,52,30.17,30.09,15,6,15,0.00
2013-5-3,68.0,56.8,46.7,49.5,45.1,40.8,81,66,47,30.11,30.02,12,3,12,0.00
2013-5-4,63.9,55.6,48.9,48.1,44.5,40.5,82,67,49,30.14,29.99,25,9,25,0.00
2013-5-5,70.1,57.0,47.0,49.7,46.1,42.3,96,70,41,30.21,30.13,13,4,13,0.00
2013-5-6,73.0,60.0,49.6,49.4,47.2,44.9,87,65,40,30.21,30.06,14,3,14,0.00
2013-5-7,79.2,63.3,53.8,60.0,52.8,47.6,89,70,39,30.07,29.90,18,3,18,0.02
2013-5-8,71.5,62.0,56.7,58.1,56.0,52.6,93,82,52,29.90,29.75,22,6,22,0.09
2013-5-9,63.9,56.7,51.2,53.2,45.7,38.2,92,69,43,29.92,29.82,20,8,20,0.00
2013-5-10,62.3,55.6,51.0,49.7,46.3,41.5,92,71,56,29.98,29.78,28,15,28,0.02
2013-5-11,58.5,52.5,48.5,50.4,46.6,41.9,93,81,59,29.98,29.81,31,12,31,0.40
2013-5-12,55.2,49.7,44.9,47.4,43.6,41.3,93,80,62,30.00,29.82,21,8,21,0.10
2013-5-13,58.1,52.7,46.5,51.8,47.3,41.1,99,83,57,29.96,29.79,26,13,26,0.15
2013-5-14,54.6,49.2,44.8,48.2,45.2,42.0,92,86,65,29.82,29.57,22,6,22,0.25
2013-5-15,64.8,54.9,47.9,49.5,45.8,40.6,93,74,45,29.61,29.42,24,10,24,0.06
2013-5-16,52.2,49.5,47.6,49.0,46.4,43.1,96,89,73,29.61,29.47,16,4,16,0.54
2013-5-17,50.7,48.1,47.1,48.2,46.7,45.7,100,95,89,29.71,29.49,13,5,13,0.48
2013-5-18,56.6,51.0,47.4,48.7,46.6,45.5,95,85,72,29.83,29.70,12,3,12,0.00
2013-5-19,63.7,53.7,45.5,52.1,47.7,43.5,94,81,65,29.86,29.80,16,5,16,0.00
2013-5-20,54.4,52.5,50.9,53.0,50.6,47.4,96,93,83,29.81,29.74,14,2,14,0.27
2013-5-21,52.5,50.1,48.5,51.4,49.0,46.6,97,96,93,29.91,29.78,21,6,21,0.69
2013-5-22,54.6,50.1,47.0,46.6,44.2,41.6,93,80,69,30.01,29.91,23,12,23,0.01
2013-5-23,53.1,46.7,42.6,43.8,40.0,36.2,92,78,55,29.93,29.78,20,6,20,0.12
2013-5-24,56.9,46.9,42.7,45.0,41.8,38.5,91,83,61,29.97,29.78,20,5,20,0.22
2013-5-25,55.2,48.7,42.7,45.8,42.9,39.3,92,81,66,30.04,29.97,24,8,24,0.06
2013-5-26,56.2,50.3,46.5,45.7,44.8,41.0,95,82,59,30.00,29.90,22,12,22,0.25
2013-5-27,69.0,57.8,47.8,50.4,42.9,29.9,89,62,26,29.90,29.76,15,5,15,0.00
2013-5-28,76.9,61.6,49.5,52.9,47.7,36.9,83,63,38,29.77,29.51,20,5,20,0.00
2013-5-29,56.5,52.9,50.8,52.6,49.6,47.2,92,89,78,29.62,29.53,16,7,16,0.02
2013-5-30,66.8,57.6,52.5,53.0,51.3,48.4,95,81,55,29.86,29.62,7,3,7,0.00
2013-5-31,70.0,58.3,51.7,57.9,52.4,49.3,96,82,55,30.00,29.86,22,11,22,0.00
2013-6-1,57.6,52.1,48.9,49.4,47.9,45.4,95,86,72,30.23,29.98,20,12,20,0.00
2013-6-2,65.3,55.1,47.8,49.9,46.0,41.9,91,73,50,30.39,30.23,14,8,14,0.00
2013-6-3,61.2,54.3,47.8,47.6,44.8,42.6,88,71,54,30.43,30.36,18,8,18,0.00
2013-6-4,74.8,60.0,48.8,55.7,49.0,44.4,85,69,44,30.38,30.15,17,7,17,0.00
2013-6-5,77.3,63.9,51.8,54.8,50.7,45.0,87,65,35,30.16,30.06,14,5,14,0.00
2013-6-6,80.8,66.5,54.2,59.6,54.4,49.3,85,67,43,30.15,30.09,14,5,14,0.00
2013-6-7,81.3,67.1,55.8,59.2,54.2,48.5,90,67,34,30.17,30.11,15,4,15,0.00
2013-6-8,71.5,60.8,52.9,53.9,51.1,49.0,88,72,51,30.17,30.00,21,10,21,0.00
2013-6-9,66.3,57.4,52.7,50.7,48.5,46.1,83,73,56,30.02,29.88,18,8,18,0.00
2013-6-10,64.5,56.7,52.0,48.1,46.3,44.6,78,69,54,30.01,29.91,14,5,14,0.00
2013-6-11,75.3,61.9,49.7,55.9,50.6,46.1,88,68,44,30.02,29.97,13,2,13,0.00
2013-6-12,74.7,65.6,62.5,62.8,58.9,55.6,95,80,62,30.00,29.91,20,6,20,0.06
2013-6-13,65.9,61.9,57.6,63.1,56.3,50.5,95,82,66,29.98,29.86,31,14,31,0.13
2013-6-14,71.5,61.6,54.6,53.1,50.6,45.5,92,69,46,30.10,29.97,20,7,20,0.00
2013-6-15,67.3,60.5,55.1,54.2,48.7,44.6,90,66,46,29.96,29.76,33,12,33,0.08
2013-6-16,67.4,59.7,53.3,52.3,48.2,44.3,85,67,51,30.01,29.89,22,8,22,0.00
2013-6-17,80.2,66.1,54.1,59.2,53.2,46.4,81,64,47,30.03,29.88,12,4,12,0.00
2013-6-18,89.2,73.5,60.7,67.8,62.2,55.9,85,69,44,29.98,29.91,10,3,10,0.00
2013-6-19,81.1,73.1,66.5,66.2,63.5,60.8,82,72,58,29.97,29.86,20,5,20,0.00
2013-6-20,77.0,70.0,64.0,69.8,64.8,60.1,92,84,71,29.98,29.76,15,2,15,0.02
2013-6-21,69.7,62.5,59.6,66.6,59.5,56.5,95,90,85,29.92,29.72,29,10,29,0.21
2013-6-22,66.1,61.5,57.8,59.9,56.4,51.3,91,84,72,29.92,29.74,31,14,31,0.05
2013-6-23,66.5,58.9,55.4,56.6,54.0,51.1,94,84,67,29.89,29.72,26,14,26,0.27
2013-6-24,59.1,56.1,54.1,54.5,52.3,50.1,96,87,78,30.26,30.00,13,5,13,0.17
2013-6-25,67.8,59.3,53.2,50.7,47.9,41.3,89,68,39,30.41,30.26,16,4,16,0.00
2013-6-26,66.4,58.5,51.9,53.5,49.2,44.8,93,73,54,30.41,30.29,17,4,17,0.29
2013-6-27,60.7,56.4,52.2,53.2,49.4,45.8,94,79,59,30.30,30.13,20,6,20,0.05
2013-6-28,61.8,57.8,55.1,57.8,53.7,49.5,97,86,74,30.13,29.97,15,5,15,0.20
2013-6-29,66.5,60.3,56.6,58.8,52.7,46.9,97,78,56,30.26,29.94,20,7,20,0.17
2013-6-30,75.5,64.1,54.4,62.0,55.2,47.4,83,73,58,30.25,30.05,20,8,20,0.00
2013-7-1,68.0,63.0,59.2,59.3,55.1,51.1,89,76,58,30.05,29.99,20,8,20,0.00
2013-7-2,72.5,64.3,56.0,60.4,54.7,52.2,92,73,51,30.01,29.76,13,3,13,0.11
2013-7-3,63.4,61.7,60.0,60.7,59.6,57.9,96,93,87,29.96,29.68,15,4,15,0.35
2013-7-4,71.9,64.2,60.5,61.2,59.6,58.3,95,86,64,30.24,29.97,22,7,22,0.00
2013-7-5,76.6,67.1,60.7,62.2,58.3,54.7,92,75,50,30.43,30.23,13,5,13,0.00
2013-7-6,83.5,70.2,58.5,64.3,59.5,55.1,89,71,47,30.43,30.36,10,2,10,0.00
2013-7-7,83.8,72.0,61.6,61.8,57.8,45.3,86,64,27,30.46,30.41,16,4,16,0.00
2013-7-8,81.8,70.3,60.7,63.1,59.6,55.8,87,70,45,30.48,30.39,20,6,20,0.00
2013-7-9,80.3,69.0,58.6,57.8,52.9,42.2,86,59,30,30.40,30.22,17,5,17,0.00
2013-7-10,73.7,64.7,59.9,60.5,56.1,49.4,90,74,51,30.24,30.19,18,8,18,0.00
2013-7-11,67.7,61.9,58.5,52.3,50.7,49.1,77,67,53,30.23,30.20,15,8,15,0.00
2013-7-12,68.5,61.0,54.4,56.9,53.4,49.3,87,76,64,30.24,30.20,14,4,14,0.00
2013-7-13,74.8,65.0,57.5,58.6,56.1,53.0,93,74,54,30.24,30.21,12,4,12,0.00
2013-7-14,78.9,66.5,57.9,62.1,58.5,55.3,92,77,56,30.26,30.18,10,2,10,0.00
2013-7-15,82.1,71.4,64.1,61.4,58.0,52.7,86,65,41,30.22,30.17,13,3,13,0.00
2013-7-16,82.0,71.4,62.5,60.0,57.3,53.1,89,63,39,30.23,30.20,12,3,12,0.00
2013-7-17,86.1,73.7,65.2,65.2,59.9,55.1,83,63,44,30.25,30.21,14,3,14,0.00
2013-7-18,87.0,74.4,65.2,64.9,62.7,58.3,92,70,39,30.27,30.23,17,6,17,0.00
2013-7-19,84.5,72.8,62.5,64.0,59.3,55.6,82,64,42,30.27,30.21,20,5,20,0.00
2013-7-20,76.6,68.9,65.0,61.7,60.1,58.1,85,74,57,30.23,30.13,12,2,12,0.00
2013-7-21,93.1,76.7,62.2,64.3,62.0,58.8,92,65,36,30.15,30.03,10,2,10,0.00
2013-7-22,92.7,80.9,69.5,67.2,63.7,61.1,78,58,36,30.06,29.95,12,2,12,0.00
2013-7-23,91.5,80.5,70.9,66.8,62.8,51.7,83,58,27,29.96,29.86,12,2,12,0.00
2013-7-24,81.5,74.8,69.5,64.8,61.3,53.9,83,64,42,29.98,29.87,18,5,18,0.00
2013-7-25,87.0,75.1,65.3,66.8,62.1,58.6,84,65,46,29.98,29.91,18,3,18,0.00
2013-7-26,85.0,74.5,68.7,71.6,66.4,63.0,92,76,57,29.97,29.85,14,2,14,0.13
2013-7-27,80.5,73.6,66.8,70.3,67.7,65.0,96,82,64,29.86,29.64,26,2,26,0.72
2013-7-28,80.8,70.9,65.1,68.5,62.1,58.6,96,76,50,29.89,29.61,21,8,21,0.30
2013-7-29,77.9,70.8,66.0,63.4,60.9,58.7,87,72,56,29.99,29.87,20,7,20,0.01
2013-7-30,69.8,65.6,61.9,63.4,59.5,56.8,96,81,67,30.02,29.87,25,11,25,0.15
2013-7-31,74.5,68.7,64.9,66.0,62.8,59.3,92,82,64,30.06,29.90,24,8,24,0.00
2013-8-1,97.0,79.5,66.0,69.5,65.3,62.5,90,65,35,30.01,29.83,14,4,14,0.00
2013-8-2,95.9,80.8,72.2,71.2,66.1,62.1,75,62,45,29.84,29.75,12,2,12,0.00
2013-8-3,75.2,71.8,66.7,59.6,57.8,55.7,77,62,55,30.14,30.06,20,8,20,0.00
2013-8-4,82.0,70.9,60.8,59.4,56.8,50.4,88,63,38,30.16,30.09,14,2,14,0.00
2013-8-5,89.0,73.8,63.2,63.1,59.2,55.5,90,62,41,30.10,29.79,24,3,24,0.10
2013-8-6,74.8,68.1,64.1,62.3,59.2,56.2,87,74,58,30.01,29.85,21,7,21,0.06
2013-8-7,65.7,62.2,60.0,59.4,58.0,55.4,92,86,77,29.98,29.85,16,5,16,0.13
2013-8-8,73.5,65.4,59.0,57.0,55.5,51.8,89,72,51,30.15,29.94,15,4,15,0.01
2013-8-9,75.1,66.2,58.1,61.7,57.2,54.2,92,74,52,30.14,30.06,15,4,15,0.00
2013-8-10,67.3,64.5,62.9,61.6,53.4,44.5,89,68,45,30.16,30.08,23,5,23,0.00
2013-8-11,73.5,65.3,58.7,61.4,56.7,51.0,89,74,58,30.14,29.98,20,7,20,0.02
2013-8-12,72.0,65.4,60.4,60.4,54.7,47.6,94,70,45,30.00,29.95,17,4,17,0.00
2013-8-13,67.3,62.6,58.8,55.9,52.6,46.0,86,70,55,30.17,29.97,18,7,18,0.06
2013-8-14,73.4,63.5,55.8,58.4,54.4,51.1,95,74,47,30.21,30.16,12,1,12,0.04
2013-8-15,74.0,64.0,57.4,64.4,58.4,53.2,95,83,63,30.19,30.07,15,3,15,0.05
2013-8-16,80.5,67.9,59.8,62.1,58.8,53.9,92,74,51,30.07,29.97,20,4,20,0.03
2013-8-17,76.2,68.3,64.3,62.8,61.3,58.3,92,79,59,30.00,29.85,20,6,20,0.01
2013-8-18,75.1,67.7,62.6,63.6,59.9,56.8,96,77,57,29.89,29.77,21,8,21,0.23
2013-8-19,71.0,63.9,59.0,61.0,56.5,51.8,94,78,55,30.27,29.87,16,4,16,0.25
2013-8-20,73.8,65.6,58.9,59.5,56.5,52.8,89,74,52,30.37,30.27,10,1,10,0.00
2013-8-21,80.3,67.3,57.1,59.4,55.7,53.1,88,68,42,30.33,30.17,12,2,12,0.00
2013-8-22,71.6,65.8,60.2,63.6,60.2,56.8,90,82,71,30.17,30.09,7,0,7,0.01
2013-8-23,84.2,71.8,63.1,63.3,60.9,57.6,94,72,43,30.10,29.93,9,1,9,0.00
2013-8-24,73.0,66.7,62.2,64.2,60.1,56.4,95,80,68,29.92,29.81,12,2,12,0.11
2013-8-25,74.0,65.4,58.0,64.3,61.3,56.9,98,87,71,29.98,29.81,7,1,7,0.01
2013-8-26,80.7,68.3,58.9,61.7,54.4,47.8,85,64,33,30.06,29.98,15,4,15,0.00
2013-8-27,81.5,68.8,58.8,56.4,52.5,49.3,75,58,36,30.05,29.98,12,2,12,0.00
2013-8-28,79.5,67.1,60.7,60.9,57.8,49.1,92,74,37,30.18,30.05,13,3,13,0.00
2013-8-29,77.2,67.3,58.2,60.2,56.6,45.9,92,71,34,30.18,30.13,18,2,18,0.00
2013-8-30,75.0,66.0,58.8,63.6,59.7,56.8,94,81,57,30.14,30.07,17,4,17,0.00
2013-8-31,70.5,64.6,58.4,62.2,56.2,46.8,92,75,53,30.31,30.06,17,6,17,0.01
2013-9-1,64.5,60.6,55.5,54.3,49.8,46.6,77,68,57,30.35,30.26,17,5,17,0.00
2013-9-2,69.8,64.1,60.1,60.3,57.1,52.3,89,78,70,30.30,30.20,20,7,20,0.00
2013-9-3,79.2,68.0,59.6,64.6,61.7,58.1,95,81,60,30.34,30.28,10,2,10,0.00
2013-9-4,84.1,70.9,61.2,65.6,62.4,59.2,94,77,51,30.29,30.06,10,1,10,0.00
2013-9-5,92.8,75.7,62.1,65.9,61.8,57.3,92,66,32,30.07,29.77,18,2,18,0.00
2013-9-6,78.3,70.0,64.6,64.6,61.4,58.8,87,75,52,29.89,29.72,13,2,13,0.15
2013-9-7,71.9,65.4,62.7,60.7,55.3,46.6,90,71,46,30.08,29.88,13,3,13,0.00
2013-9-8,71.3,61.8,55.8,58.1,54.9,50.1,93,79,56,30.11,30.05,12,2,12,0.29
2013-9-9,61.7,55.5,52.3,54.8,52.5,49.8,95,90,68,30.10,29.90,14,3,14,0.92
2013-9-10,61.5,55.6,52.1,56.3,53.0,50.3,95,91,73,29.94,29.77,24,6,24,1.09
2013-9-11,67.3,60.3,54.9,57.5,55.6,53.3,95,85,66,30.00,29.76,21,8,21,0.12
2013-9-12,67.8,59.9,56.7,59.7,56.4,53.6,96,89,67,30.09,29.99,15,2,15,0.28
2013-9-13,61.3,58.4,55.0,59.5,56.2,53.3,97,92,79,30.10,29.97,15,4,15,0.08
2013-9-14,64.0,60.5,57.3,61.3,56.3,50.3,98,86,67,29.97,29.76,30,8,30,0.24
2013-9-15,63.7,57.0,50.9,53.3,49.4,44.0,93,77,53,29.97,29.55,26,7,26,0.11
2013-9-16,60.9,54.5,49.1,54.7,47.2,41.9,94,77,52,29.58,29.50,27,8,27,0.47
2013-9-17,55.4,51.3,48.7,50.4,48.0,45.9,96,89,73,29.60,29.34,23,7,23,0.42
2013-9-18,62.2,53.9,50.5,55.4,50.5,46.3,97,89,66,29.75,29.34,18,2,18,0.19
2013-9-19,58.8,55.0,50.8,55.3,50.4,47.9,96,85,70,29.88,29.74,21,6,21,0.13
2013-9-20,61.8,58.7,53.2,55.7,53.6,50.4,96,83,71,30.20,29.78,18,5,18,0.01
2013-9-21,66.2,58.8,52.4,55.4,52.9,49.9,93,82,63,30.31,30.19,15,2,15,0.00
2013-9-22,68.1,62.3,59.8,63.0,59.8,55.5,98,92,82,30.35,30.30,13,3,13,0.00
2013-9-23,71.3,63.3,57.8,61.8,59.5,55.8,96,88,67,30.35,30.16,12,2,12,0.00
2013-9-24,69.5,61.0,55.7,61.1,57.6,54.9,98,89,71,30.16,29.97,5,0,5,0.00
2013-9-25,68.8,61.5,55.8,59.2,56.3,53.6,93,84,69,29.97,29.82,8,0,8,0.00
2013-9-26,67.0,59.6,53.4,57.7,52.1,46.1,90,77,55,30.09,29.85,14,4,14,0.00
2013-9-27,66.5,54.4,45.7,53.0,47.6,42.9,91,79,60,30.10,30.00,12,2,12,0.00
2013-9-28,69.5,54.9,46.3,51.1,45.8,42.6,88,73,48,30.00,29.85,14,3,14,0.00
2013-9-29,68.8,56.2,47.9,50.3,46.4,43.4,86,71,49,29.87,29.76,18,6,18,0.00
2013-9-30,66.3,54.3,45.5,49.5,45.4,42.0,88,73,53,29.87,29.79,15,4,15,0.00
2013-10-1,66.8,53.1,43.5,49.7,44.5,39.6,86,74,53,29.97,29.87,12,4,12,0.00
2013-10-2,66.0,53.3,43.9,47.1,43.4,39.6,86,70,47,30.04,29.97,18,6,18,0.00
2013-10-3,67.7,56.6,48.2,53.7,45.0,40.3,80,66,48,30.04,29.89,15,5,15,0.00
2013-10-4,72.5,62.5,55.8,64.0,58.2,53.7,97,86,71,29.96,29.87,23,7,23,0.44
2013-10-5,69.3,61.9,57.5,61.1,57.4,53.6,96,86,61,30.22,29.94,12,3,12,0.00
2013-10-6,64.9,57.9,51.8,57.9,53.6,50.1,96,86,67,30.32,30.22,4,0,4,0.00
2013-10-7,67.8,56.3,47.5,56.0,51.7,46.1,97,86,65,30.32,30.26,10,1,10,0.00
2013-10-8,65.6,59.0,52.5,59.2,56.0,50.6,96,90,77,30.29,30.22,13,3,13,0.00
2013-10-9,60.9,58.2,49.4,58.3,53.1,46.1,96,83,65,30.22,29.83,23,6,23,0.06
2013-10-10,55.9,50.1,46.1,48.0,45.4,42.2,94,84,67,29.84,29.73,16,4,16,0.24
2013-10-11,49.0,46.9,44.7,47.3,45.4,42.9,97,95,90,30.04,29.80,12,2,12,0.55
2013-10-12,56.9,48.4,41.7,49.0,45.5,40.9,98,90,71,30.15,29.93,9,2,9,0.27
2013-10-13,49.7,47.8,46.3,48.2,46.6,44.4,97,96,93,29.93,29.74,28,14,28,1.97
2013-10-14,52.7,50.6,48.6,51.3,49.1,47.4,97,94,90,29.89,29.77,15,6,15,0.10
2013-10-15,53.7,50.9,49.3,51.5,49.3,47.9,96,94,86,29.82,29.69,16,4,16,0.28
2013-10-16,56.4,50.4,43.1,53.7,48.7,42.3,98,94,83,29.95,29.78,15,3,15,0.04
2013-10-17,62.3,57.1,51.7,54.9,52.9,50.0,96,86,69,30.01,29.78,24,9,24,0.02
2013-10-18,55.8,53.0,49.7,55.2,52.3,48.3,99,97,95,30.09,29.97,7,1,7,0.01
2013-10-19,62.4,55.5,49.4,58.1,53.3,47.9,97,92,81,29.97,29.73,14,4,14,0.31
2013-10-20,66.2,59.3,55.2,58.8,56.2,53.8,98,90,73,29.83,29.76,20,8,20,0.02
2013-10-21,64.4,59.2,54.7,59.1,55.9,53.0,95,89,82,29.88,29.80,24,8,24,0.01
2013-10-22,73.7,63.4,57.4,62.9,58.6,55.2,95,85,67,29.80,29.52,18,7,18,0.01
2013-10-23,66.7,61.6,56.7,59.4,57.0,53.3,93,85,70,29.82,29.49,32,12,32,0.00
2013-10-24,63.7,55.6,49.5,55.1,51.5,48.1,95,87,60,30.06,29.82,13,2,13,0.00
2013-10-25,65.1,58.1,51.5,60.3,55.3,49.3,94,90,84,29.98,29.77,14,5,14,0.02
2013-10-26,67.6,61.4,58.4,59.3,57.2,55.1,95,86,65,29.83,29.69,23,9,23,0.01
2013-10-27,61.8,58.8,54.5,57.5,53.5,50.1,94,83,73,29.69,29.45,36,18,36,0.24
2013-10-28,62.4,57.3,50.8,56.2,52.2,46.6,95,83,69,29.63,29.14,51,20,51,0.57
2013-10-29,56.2,51.2,47.8,48.8,47.1,45.1,94,86,73,29.99,29.63,28,13,28,0.15
2013-10-30,56.2,50.1,46.0,48.9,45.6,43.9,93,85,65,30.22,29.98,20,6,20,0.00
2013-10-31,56.9,51.4,46.1,50.5,46.7,43.3,94,84,72,30.21,30.01,25,11,25,0.00
2013-11-1,54.7,52.6,49.8,52.1,50.1,47.9,94,91,87,30.03,29.67,20,8,20,0.03
2013-11-2,56.0,51.8,48.6,53.0,49.9,47.1,97,93,81,29.67,29.45,23,6,23,0.28
2013-11-3,52.3,49.8,47.2,48.8,45.4,43.3,92,85,77,29.56,29.43,28,14,28,0.39
2013-11-4,54.8,48.8,46.1,52.3,45.6,39.4,97,89,69,29.43,28.96,30,10,30,0.95
2013-11-5,51.1,46.3,42.7,48.5,43.3,40.6,96,90,77,29.46,29.22,26,8,26,0.24
2013-11-6,58.1,52.1,49.3,55.5,48.3,42.2,98,87,74,29.58,29.37,30,8,30,0.22
2013-11-7,58.4,54.0,50.5,56.5,51.5,47.8,95,91,83,29.78,29.52,35,7,35,0.13
2013-11-8,54.7,49.0,44.4,50.2,47.3,43.3,100,94,81,29.81,29.55,13,2,13,0.17
2013-11-9,51.9,48.0,44.5,48.5,44.2,42.3,96,87,75,29.80,29.55,25,10,25,0.49
2013-11-10,50.9,45.4,41.8,44.4,41.6,38.3,94,87,73,30.24,29.59,14,2,14,0.12
2013-11-11,50.4,45.2,38.1,44.8,40.8,36.8,96,85,72,30.36,30.24,17,6,17,0.01
2013-11-12,50.2,47.2,44.5,49.2,44.6,39.8,97,91,75,30.41,30.20,24,7,24,0.06
2013-11-13,54.3,45.7,38.8,45.3,42.0,37.8,100,87,65,30.52,30.31,10,1,10,0.01
2013-11-14,49.9,46.0,44.1,47.0,43.5,40.8,96,91,84,30.30,30.02,18,6,18,0.22
2013-11-15,54.5,46.8,40.5,47.8,43.6,38.9,95,89,75,30.50,30.21,13,3,13,0.00
2013-11-16,44.0,42.1,39.5,43.5,41.4,38.6,100,97,93,30.49,30.35,9,2,9,0.00
2013-11-17,46.5,44.6,42.6,45.3,43.6,41.8,97,96,95,30.35,30.07,6,0,6,0.02
2013-11-18,45.1,43.5,41.9,43.3,40.6,38.4,96,89,82,30.07,29.74,18,6,18,0.00
2013-11-19,47.9,43.8,40.3,45.0,41.1,37.0,97,90,82,29.89,29.67,21,5,21,0.09
2013-11-20,43.1,39.7,36.7,38.3,36.1,33.1,95,87,72,29.89,29.36,20,6,20,0.18
2013-11-21,42.2,38.4,35.7,37.4,35.7,33.3,95,90,82,29.84,29.36,13,5,13,0.04
2013-11-22,44.0,40.3,35.8,41.0,37.0,32.6,93,88,83,30.06,29.84,17,6,17,0.01
2013-11-23,47.9,42.8,40.7,40.3,38.7,36.3,93,86,74,30.21,30.06,15,5,15,0.00
2013-11-24,48.0,45.1,42.5,44.7,40.5,37.0,94,84,71,30.43,30.19,20,5,20,0.00
2013-11-25,47.9,43.8,42.2,41.1,38.3,35.8,89,81,74,30.57,30.43,15,6,15,0.00
2013-11-26,47.1,43.9,41.3,42.1,40.4,38.6,91,87,78,30.60,30.53,13,1,13,0.02
2013-11-27,48.3,44.6,40.4,45.5,42.0,38.5,100,91,78,30.53,30.48,13,4,13,0.00
2013-11-28,51.2,48.8,46.0,49.5,46.6,42.0,98,93,80,30.51,30.47,12,1,12,0.02
2013-11-29,48.9,46.6,42.9,46.2,42.2,38.1,94,85,73,30.48,29.96,29,8,29,0.14
2013-11-30,51.4,45.8,42.4,44.9,42.3,39.3,95,88,70,30.38,29.93,24,4,24,0.09
2013-12-1,48.9,46.3,42.4,46.4,43.1,40.0,95,89,79,30.53,30.36,12,2,12,0.00
2013-12-2,49.1,43.6,37.5,42.6,39.5,35.5,93,86,74,30.58,30.46,12,2,12,0.00
2013-12-3,45.0,37.7,33.1,40.8,36.0,32.0,97,94,85,30.46,30.30,6,1,6,0.01
2013-12-4,47.7,43.5,38.3,46.6,40.3,36.5,96,89,79,30.39,30.24,20,5,20,0.05
2013-12-5,49.6,42.6,38.8,44.8,38.0,31.2,90,84,64,30.39,29.78,47,15,47,0.19
2013-12-6,42.9,40.5,37.2,36.8,33.2,28.3,89,76,59,30.30,30.01,32,13,32,0.15
2013-12-7,47.9,44.3,40.1,45.0,40.6,33.3,96,87,71,30.31,30.22,15,4,15,0.06
2013-12-8,49.7,47.2,44.8,46.9,44.8,42.6,96,91,86,30.26,30.20,27,11,27,0.02
2013-12-9,52.1,49.0,43.7,48.2,46.4,41.8,96,91,85,30.49,30.25,30,8,30,0.01
2013-12-10,48.5,40.8,36.4,42.0,37.5,34.3,100,88,73,30.54,30.49,8,1,8,0.00
2013-12-11,48.6,37.1,32.2,41.6,34.9,30.9,100,92,73,30.53,30.43,9,1,9,0.00
2013-12-12,41.6,36.0,33.4,37.1,34.3,32.6,97,94,82,30.44,30.28,12,3,12,0.01
2013-12-13,42.9,37.1,33.6,40.6,35.8,32.6,98,95,88,30.29,30.13,12,4,12,0.00
2013-12-14,49.2,44.2,39.8,44.7,41.7,37.6,100,91,80,30.32,30.14,21,6,21,0.10
2013-12-15,50.2,46.8,43.8,46.4,42.8,39.5,91,86,79,30.30,30.18,24,12,24,0.09
2013-12-16,55.2,50.5,47.2,44.9,43.7,41.3,88,78,63,30.20,30.10,23,12,23,0.00
2013-12-17,51.0,45.1,42.8,45.0,41.9,40.7,94,89,79,30.26,30.11,13,3,13,0.01
2013-12-18,50.1,46.4,43.5,45.3,42.6,40.3,92,87,77,30.11,29.60,21,10,21,0.01
2013-12-19,50.4,46.4,39.8,47.2,43.2,37.9,94,89,72,29.86,29.46,26,8,26,0.30
2013-12-20,48.6,43.5,39.7,42.6,40.5,38.1,94,89,78,30.28,29.86,26,9,26,0.02
2013-12-21,46.7,45.0,43.7,43.1,41.5,39.0,94,88,82,30.25,29.90,31,17,31,0.16
2013-12-22,51.4,47.1,45.2,46.8,43.8,41.8,92,88,82,29.93,29.80,27,15,27,0.09
2013-12-23,53.7,46.9,42.5,47.3,43.2,39.8,91,87,77,29.97,29.32,37,15,37,0.06
2013-12-24,53.6,52.2,47.6,47.9,46.0,44.7,96,80,73,29.33,29.10,46,25,46,0.28
2013-12-25,47.9,44.4,38.5,45.8,41.1,37.1,96,88,79,29.29,29.01,24,7,24,0.14
2013-12-26,45.8,42.0,38.1,42.8,39.7,36.8,96,92,83,29.59,29.27,16,4,16,0.00
2013-12-27,49.6,45.9,39.3,48.0,43.1,37.1,96,90,81,29.56,29.26,32,15,32,0.18
2013-12-28,48.9,45.5,41.3,45.5,43.2,39.2,100,92,84,29.68,29.34,18,7,18,0.22
2013-12-29,48.9,42.6,39.6,43.4,40.0,36.9,96,90,72,30.18,29.68,18,7,18,0.06
2013-12-30,45.8,42.1,38.2,43.2,39.2,36.3,94,89,82,30.19,29.95,26,13,26,0.03
2013-12-31,48.2,45.0,42.7,41.6,40.5,37.4,93,84,69,30.03,29.72,21,10,21,0.13
2014-1-1,48.7,45.0,41.6,46.7,42.3,39.4,94,90,82,29.75,29.35,24,12,24,0.17
2014-1-2,51.5,48.5,44.8,47.5,44.9,41.8,94,88,82,29.63,29.29,24,12,24,0.06